Station Historical Data
Daily Summary for August 6, 2017 Units:  Both    English   Metric
« Previous Day
Next Day »
Daily Weekly Monthly Yearly Custom
  High: Low: Average:
Temperature: 76.8 °F /  24.9 °C 51.2 °F /  10.7 °C 65.8 °F /  18.8 °C
Dew Point: 61.9 °F /  16.6 °C 48.4 °F /  9.1 °C 55.7 °F /  13.2 °C
Humidity: 91% 45% 72%
Wind Speed: 13.0mph /  20.9km/h - 3mph /  4.8km/h
Wind Gust: 17.0mph /  27.4km/h - -
Wind- - WSW
Pressure: 30.08 in /  1018.5 hPa 30.02 in /  1016.5 hPa -
Precipitation: 0.00 in /  0 mm    
Historical Graphs
 
 
Tabular Data for August 6, 2017
Time Temperature Dew Point Pressure Wind Wind Speed Wind Gust Humidity Rainfall Rate (Hourly)
00:00 56.1 °F /  13.4 °C 50.0 °F /  10 °C 30.02in /  1016.5hPa Calm     80% 0.00in /  0mm
00:05 56.0 °F /  13.3 °C 49.9 °F /  9.9 °C 30.02in /  1016.5hPa Calm     80% 0.00in /  0mm
00:10 56.0 °F /  13.3 °C 49.9 °F /  9.9 °C 30.02in /  1016.5hPa Calm     80% 0.00in /  0mm
00:15 56.0 °F /  13.3 °C 50.3 °F /  10.2 °C 30.03in /  1016.8hPa Calm     81% 0.00in /  0mm
00:20 55.8 °F /  13.2 °C 50.1 °F /  10.1 °C 30.03in /  1016.8hPa Calm     81% 0.00in /  0mm
00:25 55.7 °F /  13.2 °C 50.0 °F /  10 °C 30.02in /  1016.5hPa Calm     81% 0.00in /  0mm
00:30 55.4 °F /  13 °C 49.7 °F /  9.8 °C 30.03in /  1016.8hPa Calm     81% 0.00in /  0mm
00:35 55.4 °F /  13 °C 50.0 °F /  10 °C 30.03in /  1016.8hPa Calm     82% 0.00in /  0mm
00:40 55.2 °F /  12.9 °C 49.8 °F /  9.9 °C 30.03in /  1016.8hPa Calm     82% 0.00in /  0mm
00:45 55.2 °F /  12.9 °C 49.8 °F /  9.9 °C 30.03in /  1016.8hPa Calm     82% 0.00in /  0mm
00:50 55.0 °F /  12.8 °C 49.6 °F /  9.8 °C 30.03in /  1016.8hPa Calm     82% 0.00in /  0mm
00:55 54.8 °F /  12.7 °C 49.7 °F /  9.8 °C 30.03in /  1016.8hPa Calm     83% 0.00in /  0mm
01:00 54.6 °F /  12.6 °C 49.5 °F /  9.7 °C 30.02in /  1016.5hPa Calm     83% 0.00in /  0mm
01:10 54.6 °F /  12.6 °C 49.5 °F /  9.7 °C 30.02in /  1016.5hPa Calm     83% 0.00in /  0mm
01:15 54.7 °F /  12.6 °C 49.6 °F /  9.8 °C 30.02in /  1016.5hPa Calm     83% 0.00in /  0mm
01:20 54.8 °F /  12.7 °C 50.1 °F /  10.1 °C 30.02in /  1016.5hPa Calm     84% 0.00in /  0mm
01:25 54.6 °F /  12.6 °C 49.9 °F /  9.9 °C 30.02in /  1016.5hPa Calm     84% 0.00in /  0mm
01:30 54.5 °F /  12.5 °C 50.1 °F /  10.1 °C 30.02in /  1016.5hPa Calm     85% 0.00in /  0mm
01:35 54.2 °F /  12.3 °C 49.8 °F /  9.9 °C 30.02in /  1016.5hPa Calm     85% 0.00in /  0mm
01:40 54.1 °F /  12.3 °C 49.7 °F /  9.8 °C 30.03in /  1016.8hPa Calm     85% 0.00in /  0mm
01:45 53.9 °F /  12.2 °C 49.5 °F /  9.7 °C 30.03in /  1016.8hPa Calm     85% 0.00in /  0mm
01:50 53.8 °F /  12.1 °C 49.4 °F /  9.7 °C 30.02in /  1016.5hPa Calm     85% 0.00in /  0mm
01:55 53.8 °F /  12.1 °C 49.4 °F /  9.7 °C 30.03in /  1016.8hPa Calm     85% 0.00in /  0mm
02:00 53.7 °F /  12.1 °C 49.3 °F /  9.6 °C 30.03in /  1016.8hPa Calm     85% 0.00in /  0mm
02:15 53.5 °F /  11.9 °C 49.4 °F /  9.7 °C 30.03in /  1016.8hPa Calm     86% 0.00in /  0mm
02:20 53.3 °F /  11.8 °C 49.2 °F /  9.6 °C 30.03in /  1016.8hPa Calm     86% 0.00in /  0mm
02:25 53.2 °F /  11.8 °C 49.4 °F /  9.7 °C 30.03in /  1016.8hPa Calm     87% 0.00in /  0mm
02:30 53.3 °F /  11.8 °C 49.5 °F /  9.7 °C 30.02in /  1016.5hPa Calm     87% 0.00in /  0mm
02:35 53.2 °F /  11.8 °C 49.4 °F /  9.7 °C 30.02in /  1016.5hPa Calm     87% 0.00in /  0mm
02:40 53.2 °F /  11.8 °C 49.4 °F /  9.7 °C 30.02in /  1016.5hPa Calm     87% 0.00in /  0mm
02:45 53.3 °F /  11.8 °C 49.8 °F /  9.9 °C 30.03in /  1016.8hPa Calm     88% 0.00in /  0mm
02:50 53.4 °F /  11.9 °C 49.6 °F /  9.8 °C 30.03in /  1016.8hPa Calm     87% 0.00in /  0mm
02:55 53.3 °F /  11.8 °C 49.5 °F /  9.7 °C 30.03in /  1016.8hPa Calm     87% 0.00in /  0mm
03:00 53.3 °F /  11.8 °C 49.8 °F /  9.9 °C 30.03in /  1016.8hPa Calm     88% 0.00in /  0mm
03:05 53.2 °F /  11.8 °C 49.7 °F /  9.8 °C 30.02in /  1016.5hPa Calm     88% 0.00in /  0mm
03:10 53.0 °F /  11.7 °C 49.2 °F /  9.6 °C 30.03in /  1016.8hPa Calm     87% 0.00in /  0mm
03:15 53.0 °F /  11.7 °C 49.5 °F /  9.7 °C 30.03in /  1016.8hPa Calm     88% 0.00in /  0mm
03:20 52.9 °F /  11.6 °C 49.4 °F /  9.7 °C 30.03in /  1016.8hPa Calm     88% 0.00in /  0mm
03:25 52.7 °F /  11.5 °C 49.2 °F /  9.6 °C 30.03in /  1016.8hPa Calm     88% 0.00in /  0mm
03:30 52.6 °F /  11.4 °C 49.1 °F /  9.5 °C 30.03in /  1016.8hPa Calm     88% 0.00in /  0mm
03:35 52.6 °F /  11.4 °C 49.1 °F /  9.5 °C 30.03in /  1016.8hPa Calm     88% 0.00in /  0mm
03:40 52.6 °F /  11.4 °C 49.1 °F /  9.5 °C 30.03in /  1016.8hPa Calm     88% 0.00in /  0mm
03:45 52.8 °F /  11.6 °C 49.3 °F /  9.6 °C 30.03in /  1016.8hPa Calm     88% 0.00in /  0mm
03:50 52.8 °F /  11.6 °C 49.3 °F /  9.6 °C 30.03in /  1016.8hPa Calm     88% 0.00in /  0mm
03:55 53.1 °F /  11.7 °C 49.6 °F /  9.8 °C 30.03in /  1016.8hPa Calm     88% 0.00in /  0mm
04:00 53.1 °F /  11.7 °C 49.6 °F /  9.8 °C 30.03in /  1016.8hPa Calm     88% 0.00in /  0mm
04:05 53.2 °F /  11.8 °C 49.7 °F /  9.8 °C 30.03in /  1016.8hPa Calm     88% 0.00in /  0mm
04:10 53.3 °F /  11.8 °C 49.8 °F /  9.9 °C 30.03in /  1016.8hPa Calm     88% 0.00in /  0mm
04:15 53.1 °F /  11.7 °C 49.6 °F /  9.8 °C 30.03in /  1016.8hPa Calm     88% 0.00in /  0mm
04:20 53.0 °F /  11.7 °C 49.5 °F /  9.7 °C 30.03in /  1016.8hPa Calm     88% 0.00in /  0mm
04:25 53.0 °F /  11.7 °C 49.5 °F /  9.7 °C 30.03in /  1016.8hPa Calm     88% 0.00in /  0mm
04:29 53.1 °F /  11.7 °C 49.6 °F /  9.8 °C 30.03in /  1016.8hPa Calm     88% 0.00in /  0mm
04:35 53.1 °F /  11.7 °C 49.6 °F /  9.8 °C 30.03in /  1016.8hPa Calm     88% 0.00in /  0mm
04:40 53.0 °F /  11.7 °C 49.5 °F /  9.7 °C 30.03in /  1016.8hPa Calm     88% 0.00in /  0mm
04:45 53.1 °F /  11.7 °C 49.6 °F /  9.8 °C 30.03in /  1016.8hPa Calm     88% 0.00in /  0mm
04:50 52.9 °F /  11.6 °C 49.4 °F /  9.7 °C 30.04in /  1017.2hPa Calm     88% 0.00in /  0mm
04:55 52.6 °F /  11.4 °C 49.1 °F /  9.5 °C 30.03in /  1016.8hPa Calm     88% 0.00in /  0mm
05:00 52.3 °F /  11.3 °C 48.9 °F /  9.4 °C 30.03in /  1016.8hPa Calm     88% 0.00in /  0mm
05:05 52.2 °F /  11.2 °C 48.8 °F /  9.3 °C 30.04in /  1017.2hPa Calm     88% 0.00in /  0mm
05:09 52.2 °F /  11.2 °C 49.1 °F /  9.5 °C 30.04in /  1017.2hPa Calm     89% 0.00in /  0mm
05:15 52.1 °F /  11.2 °C 49.0 °F /  9.4 °C 30.04in /  1017.2hPa Calm     89% 0.00in /  0mm
05:20 51.9 °F /  11.1 °C 48.8 °F /  9.3 °C 30.04in /  1017.2hPa Calm     89% 0.00in /  0mm
05:25 52.0 °F /  11.1 °C 48.9 °F /  9.4 °C 30.04in /  1017.2hPa Calm     89% 0.00in /  0mm
05:30 52.1 °F /  11.2 °C 49.0 °F /  9.4 °C 30.04in /  1017.2hPa Calm     89% 0.00in /  0mm
05:35 52.1 °F /  11.2 °C 49.0 °F /  9.4 °C 30.05in /  1017.5hPa Calm     89% 0.00in /  0mm
05:40 51.9 °F /  11.1 °C 49.1 °F /  9.5 °C 30.05in /  1017.5hPa Calm     90% 0.00in /  0mm
05:44 51.6 °F /  10.9 °C 48.5 °F /  9.2 °C 30.05in /  1017.5hPa Calm     89% 0.00in /  0mm
05:55 51.3 °F /  10.7 °C 48.5 °F /  9.2 °C 30.06in /  1017.8hPa Calm     90% 0.00in /  0mm
06:00 51.2 °F /  10.7 °C 48.4 °F /  9.1 °C 30.06in /  1017.8hPa Calm     90% 0.00in /  0mm
06:05 51.3 °F /  10.7 °C 48.5 °F /  9.2 °C 30.06in /  1017.8hPa Calm     90% 0.00in /  0mm
06:10 51.2 °F /  10.7 °C 48.4 °F /  9.1 °C 30.05in /  1017.5hPa Calm     90% 0.00in /  0mm
06:14 51.5 °F /  10.8 °C 48.7 °F /  9.3 °C 30.05in /  1017.5hPa Calm     90% 0.00in /  0mm
06:20 51.6 °F /  10.9 °C 49.1 °F /  9.5 °C 30.05in /  1017.5hPa Calm     91% 0.00in /  0mm
06:25 51.6 °F /  10.9 °C 49.1 °F /  9.5 °C 30.05in /  1017.5hPa Calm     91% 0.00in /  0mm
06:30 51.5 °F /  10.8 °C 49.0 °F /  9.4 °C 30.06in /  1017.8hPa Calm     91% 0.00in /  0mm
06:35 51.7 °F /  10.9 °C 49.2 °F /  9.6 °C 30.06in /  1017.8hPa Calm     91% 0.00in /  0mm
06:40 51.9 °F /  11.1 °C 49.4 °F /  9.7 °C 30.06in /  1017.8hPa Calm     91% 0.00in /  0mm
06:45 52.1 °F /  11.2 °C 49.6 °F /  9.8 °C 30.06in /  1017.8hPa Calm     91% 0.00in /  0mm
06:50 52.2 °F /  11.2 °C 49.7 °F /  9.8 °C 30.06in /  1017.8hPa Calm     91% 0.00in /  0mm
06:55 52.4 °F /  11.3 °C 49.8 °F /  9.9 °C 30.06in /  1017.8hPa Calm     91% 0.00in /  0mm
06:59 52.7 °F /  11.5 °C 50.1 °F /  10.1 °C 30.06in /  1017.8hPa Calm     91% 0.00in /  0mm
07:04 53.1 °F /  11.7 °C 50.5 °F /  10.3 °C 30.06in /  1017.8hPa Calm     91% 0.00in /  0mm
07:10 53.5 °F /  11.9 °C 50.6 °F /  10.3 °C 30.06in /  1017.8hPa Calm     90% 0.00in /  0mm
07:15 54.0 °F /  12.2 °C 51.1 °F /  10.6 °C 30.07in /  1018.2hPa Calm     90% 0.00in /  0mm
07:20 54.6 °F /  12.6 °C 51.7 °F /  10.9 °C 30.07in /  1018.2hPa Calm     90% 0.00in /  0mm
07:24 55.2 °F /  12.9 °C 52.0 °F /  11.1 °C 30.07in /  1018.2hPa Calm     89% 0.00in /  0mm
07:35 56.4 °F /  13.6 °C 52.9 °F /  11.6 °C 30.07in /  1018.2hPa Calm     88% 0.00in /  0mm
07:40 56.9 °F /  13.8 °C 53.1 °F /  11.7 °C 30.07in /  1018.2hPa Calm     87% 0.00in /  0mm
07:45 57.5 °F /  14.2 °C 53.3 °F /  11.8 °C 30.07in /  1018.2hPa Calm     86% 0.00in /  0mm
07:50 58.0 °F /  14.4 °C 53.5 °F /  11.9 °C 30.07in /  1018.2hPa SSE 2.0mph /  3.2km/h 3.0mph /  4.8km/h 85% 0.00in /  0mm
07:54 58.6 °F /  14.8 °C 53.8 °F /  12.1 °C 30.07in /  1018.2hPa South 1.0mph /  1.6km/h 3.0mph /  4.8km/h 84% 0.00in /  0mm
08:00 59.1 °F /  15.1 °C 53.9 °F /  12.2 °C 30.07in /  1018.2hPa South 1.0mph /  1.6km/h 4.0mph /  6.4km/h 83% 0.00in /  0mm
08:05 59.4 °F /  15.2 °C 53.9 °F /  12.2 °C 30.07in /  1018.2hPa SSW 2.0mph /  3.2km/h 4.0mph /  6.4km/h 82% 0.00in /  0mm
08:10 59.9 °F /  15.5 °C 54.4 °F /  12.4 °C 30.07in /  1018.2hPa SSW 1.0mph /  1.6km/h 4.0mph /  6.4km/h 82% 0.00in /  0mm
08:15 60.3 °F /  15.7 °C 54.8 °F /  12.7 °C 30.07in /  1018.2hPa SSW 1.0mph /  1.6km/h 3.0mph /  4.8km/h 82% 0.00in /  0mm
08:20 60.8 °F /  16 °C 54.9 °F /  12.7 °C 30.07in /  1018.2hPa Calm   4.0mph /  6.4km/h 81% 0.00in /  0mm
08:24 61.3 °F /  16.3 °C 55.1 °F /  12.8 °C 30.07in /  1018.2hPa SSW 3.0mph /  4.8km/h 4.0mph /  6.4km/h 80% 0.00in /  0mm
08:29 61.7 °F /  16.5 °C 55.1 °F /  12.8 °C 30.08in /  1018.5hPa WSW 2.0mph /  3.2km/h 4.0mph /  6.4km/h 79% 0.00in /  0mm
08:35 62.1 °F /  16.7 °C 55.2 °F /  12.9 °C 30.08in /  1018.5hPa SW 2.0mph /  3.2km/h 6.0mph /  9.7km/h 78% 0.00in /  0mm
08:40 62.3 °F /  16.8 °C 55.4 °F /  13 °C 30.08in /  1018.5hPa South 3.0mph /  4.8km/h 5.0mph /  8km/h 78% 0.00in /  0mm
08:45 62.8 °F /  17.1 °C 55.5 °F /  13.1 °C 30.08in /  1018.5hPa Calm   5.0mph /  8km/h 77% 0.00in /  0mm
08:50 63.1 °F /  17.3 °C 55.4 °F /  13 °C 30.08in /  1018.5hPa SSW 2.0mph /  3.2km/h 5.0mph /  8km/h 76% 0.00in /  0mm
08:55 63.7 °F /  17.6 °C 56.0 °F /  13.3 °C 30.08in /  1018.5hPa SSW 2.0mph /  3.2km/h 5.0mph /  8km/h 76% 0.00in /  0mm
08:59 64.3 °F /  17.9 °C 55.8 °F /  13.2 °C 30.08in /  1018.5hPa SSW 2.0mph /  3.2km/h 6.0mph /  9.7km/h 74% 0.00in /  0mm
09:05 65.1 °F /  18.4 °C 57.0 °F /  13.9 °C 30.07in /  1018.2hPa SW 2.0mph /  3.2km/h 6.0mph /  9.7km/h 75% 0.00in /  0mm
09:10 65.6 °F /  18.7 °C 56.3 °F /  13.5 °C 30.08in /  1018.5hPa SW 3.0mph /  4.8km/h 5.0mph /  8km/h 72% 0.00in /  0mm
09:15 66.7 °F /  19.3 °C 57.4 °F /  14.1 °C 30.07in /  1018.2hPa SSW 2.0mph /  3.2km/h 5.0mph /  8km/h 72% 0.00in /  0mm
09:20 67.0 °F /  19.4 °C 57.3 °F /  14.1 °C 30.08in /  1018.5hPa WSW 2.0mph /  3.2km/h 5.0mph /  8km/h 71% 0.00in /  0mm
09:25 67.1 °F /  19.5 °C 57.4 °F /  14.1 °C 30.08in /  1018.5hPa SSW 3.0mph /  4.8km/h 6.0mph /  9.7km/h 71% 0.00in /  0mm
09:29 67.1 °F /  19.5 °C 56.6 °F /  13.7 °C 30.07in /  1018.2hPa SSW 3.0mph /  4.8km/h 7.0mph /  11.3km/h 69% 0.00in /  0mm
09:34 67.6 °F /  19.8 °C 57.5 °F /  14.2 °C 30.07in /  1018.2hPa SW 3.0mph /  4.8km/h 5.0mph /  8km/h 70% 0.00in /  0mm
09:40 68.2 °F /  20.1 °C 57.6 °F /  14.2 °C 30.07in /  1018.2hPa SW 3.0mph /  4.8km/h 6.0mph /  9.7km/h 69% 0.00in /  0mm
09:44 69.1 °F /  20.6 °C 58.5 °F /  14.7 °C 30.07in /  1018.2hPa SSW 1.0mph /  1.6km/h 6.0mph /  9.7km/h 69% 0.00in /  0mm
09:49 69.7 °F /  20.9 °C 59.1 °F /  15.1 °C 30.07in /  1018.2hPa SW 2.0mph /  3.2km/h 7.0mph /  11.3km/h 69% 0.00in /  0mm
09:54 69.7 °F /  20.9 °C 59.1 °F /  15.1 °C 30.07in /  1018.2hPa WSW 6.0mph /  9.7km/h 6.0mph /  9.7km/h 69% 0.00in /  0mm
10:00 70.1 °F /  21.2 °C 58.6 °F /  14.8 °C 30.07in /  1018.2hPa WSW 3.0mph /  4.8km/h 9.0mph /  14.5km/h 67% 0.00in /  0mm
10:04 70.4 °F /  21.3 °C 59.3 °F /  15.2 °C 30.06in /  1017.8hPa SW 4.0mph /  6.4km/h 9.0mph /  14.5km/h 68% 0.00in /  0mm
10:09 70.9 °F /  21.6 °C 59.8 °F /  15.4 °C 30.06in /  1017.8hPa SW 4.0mph /  6.4km/h 8.0mph /  12.9km/h 68% 0.00in /  0mm
10:14 70.9 °F /  21.6 °C 58.5 °F /  14.7 °C 30.06in /  1017.8hPa SW 4.0mph /  6.4km/h 8.0mph /  12.9km/h 65% 0.00in /  0mm
10:20 71.3 °F /  21.8 °C 59.8 °F /  15.4 °C 30.06in /  1017.8hPa WSW 4.0mph /  6.4km/h 8.0mph /  12.9km/h 67% 0.00in /  0mm
10:25 71.8 °F /  22.1 °C 59.0 °F /  15 °C 30.06in /  1017.8hPa SW 7.0mph /  11.3km/h 9.0mph /  14.5km/h 64% 0.00in /  0mm
10:30 71.7 °F /  22.1 °C 59.3 °F /  15.2 °C 30.06in /  1017.8hPa SW 10.0mph /  16.1km/h 14.0mph /  22.5km/h 65% 0.00in /  0mm
10:35 71.6 °F /  22 °C 58.8 °F /  14.9 °C 30.06in /  1017.8hPa SW 7.0mph /  11.3km/h 11.0mph /  17.7km/h 64% 0.00in /  0mm
10:39 71.7 °F /  22.1 °C 58.4 °F /  14.7 °C 30.06in /  1017.8hPa West 4.0mph /  6.4km/h 8.0mph /  12.9km/h 63% 0.00in /  0mm
10:44 71.3 °F /  21.8 °C 58.1 °F /  14.5 °C 30.06in /  1017.8hPa WSW 3.0mph /  4.8km/h 10.0mph /  16.1km/h 63% 0.00in /  0mm
10:49 72.6 °F /  22.6 °C 58.8 °F /  14.9 °C 30.07in /  1018.2hPa South 3.0mph /  4.8km/h 9.0mph /  14.5km/h 62% 0.00in /  0mm
10:54 72.4 °F /  22.4 °C 58.2 °F /  14.6 °C 30.06in /  1017.8hPa SW 3.0mph /  4.8km/h 11.0mph /  17.7km/h 61% 0.00in /  0mm
10:59 72.0 °F /  22.2 °C 58.7 °F /  14.8 °C 30.06in /  1017.8hPa WSW 2.0mph /  3.2km/h 9.0mph /  14.5km/h 63% 0.00in /  0mm
11:04 72.8 °F /  22.7 °C 59.0 °F /  15 °C 30.07in /  1018.2hPa WSW 5.0mph /  8km/h 12.0mph /  19.3km/h 62% 0.00in /  0mm
11:10 72.6 °F /  22.6 °C 58.8 °F /  14.9 °C 30.07in /  1018.2hPa SW 6.0mph /  9.7km/h 12.0mph /  19.3km/h 62% 0.00in /  0mm
11:15 73.1 °F /  22.8 °C 59.3 °F /  15.2 °C 30.07in /  1018.2hPa SSW 5.0mph /  8km/h 12.0mph /  19.3km/h 62% 0.00in /  0mm
11:20 73.4 °F /  23 °C 59.1 °F /  15.1 °C 30.07in /  1018.2hPa SW 4.0mph /  6.4km/h 10.0mph /  16.1km/h 61% 0.00in /  0mm
11:30 74.2 °F /  23.4 °C 59.4 °F /  15.2 °C 30.07in /  1018.2hPa West 6.0mph /  9.7km/h 11.0mph /  17.7km/h 60% 0.00in /  0mm
11:35 73.7 °F /  23.2 °C 58.5 °F /  14.7 °C 30.07in /  1018.2hPa West 4.0mph /  6.4km/h 9.0mph /  14.5km/h 59% 0.00in /  0mm
11:39 74.0 °F /  23.3 °C 59.2 °F /  15.1 °C 30.07in /  1018.2hPa WSW 5.0mph /  8km/h 11.0mph /  17.7km/h 60% 0.00in /  0mm
11:44 73.4 °F /  23 °C 57.2 °F /  14 °C 30.07in /  1018.2hPa SW 9.0mph /  14.5km/h 13.0mph /  20.9km/h 57% 0.00in /  0mm
11:49 74.0 °F /  23.3 °C 58.8 °F /  14.9 °C 30.07in /  1018.2hPa WSW 4.0mph /  6.4km/h 11.0mph /  17.7km/h 59% 0.00in /  0mm
11:50 74.0 °F /  23.3 °C 58.8 °F /  14.9 °C 30.07in /  1018.2hPa SW 7.0mph /  11.3km/h 13.0mph /  20.9km/h 59% 0.00in /  0mm
11:54 74.3 °F /  23.5 °C 57.6 °F /  14.2 °C 30.07in /  1018.2hPa SW 9.0mph /  14.5km/h 12.0mph /  19.3km/h 56% 0.00in /  0mm
11:59 73.9 °F /  23.3 °C 56.7 °F /  13.7 °C 30.07in /  1018.2hPa West 7.0mph /  11.3km/h 15.0mph /  24.1km/h 55% 0.00in /  0mm
12:05 72.8 °F /  22.7 °C 56.2 °F /  13.4 °C 30.07in /  1018.2hPa WSW 7.0mph /  11.3km/h 15.0mph /  24.1km/h 56% 0.00in /  0mm
12:09 72.1 °F /  22.3 °C 55.5 °F /  13.1 °C 30.07in /  1018.2hPa WSW 6.0mph /  9.7km/h 13.0mph /  20.9km/h 56% 0.00in /  0mm
12:14 73.4 °F /  23 °C 56.2 °F /  13.4 °C 30.07in /  1018.2hPa WSW 6.0mph /  9.7km/h 13.0mph /  20.9km/h 55% 0.00in /  0mm
12:19 75.4 °F /  24.1 °C 57.6 °F /  14.2 °C 30.07in /  1018.2hPa WSW 5.0mph /  8km/h 13.0mph /  20.9km/h 54% 0.00in /  0mm
12:24 74.9 °F /  23.8 °C 56.1 °F /  13.4 °C 30.07in /  1018.2hPa WSW 5.0mph /  8km/h 13.0mph /  20.9km/h 52% 0.00in /  0mm
12:30 74.6 °F /  23.7 °C 55.3 °F /  12.9 °C 30.07in /  1018.2hPa WSW 6.0mph /  9.7km/h 12.0mph /  19.3km/h 51% 0.00in /  0mm
12:35 75.6 °F /  24.2 °C 55.1 °F /  12.8 °C 30.07in /  1018.2hPa West 5.0mph /  8km/h 9.0mph /  14.5km/h 49% 0.00in /  0mm
12:39 75.4 °F /  24.1 °C 54.3 °F /  12.4 °C 30.07in /  1018.2hPa WSW 6.0mph /  9.7km/h 13.0mph /  20.9km/h 48% 0.00in /  0mm
12:44 75.0 °F /  23.9 °C 54.5 °F /  12.5 °C 30.06in /  1017.8hPa WSW 6.0mph /  9.7km/h 14.0mph /  22.5km/h 49% 0.00in /  0mm
12:50 75.1 °F /  23.9 °C 55.2 °F /  12.9 °C 30.07in /  1018.2hPa SW 5.0mph /  8km/h 14.0mph /  22.5km/h 50% 0.00in /  0mm
12:54 75.0 °F /  23.9 °C 54.5 °F /  12.5 °C 30.07in /  1018.2hPa SW 8.0mph /  12.9km/h 12.0mph /  19.3km/h 49% 0.00in /  0mm
12:59 75.9 °F /  24.4 °C 56.5 °F /  13.6 °C 30.06in /  1017.8hPa West 4.0mph /  6.4km/h 11.0mph /  17.7km/h 51% 0.00in /  0mm
13:04 75.5 °F /  24.2 °C 53.3 °F /  11.8 °C 30.07in /  1018.2hPa WSW 8.0mph /  12.9km/h 16.0mph /  25.7km/h 46% 0.00in /  0mm
13:09 75.1 °F /  23.9 °C 54.6 °F /  12.6 °C 30.06in /  1017.8hPa SW 8.0mph /  12.9km/h 11.0mph /  17.7km/h 49% 0.00in /  0mm
13:14 75.0 °F /  23.9 °C 53.4 °F /  11.9 °C 30.06in /  1017.8hPa WSW 6.0mph /  9.7km/h 11.0mph /  17.7km/h 47% 0.00in /  0mm
13:19 75.4 °F /  24.1 °C 55.5 °F /  13.1 °C 30.06in /  1017.8hPa WSW 6.0mph /  9.7km/h 14.0mph /  22.5km/h 50% 0.00in /  0mm
13:25 75.6 °F /  24.2 °C 53.9 °F /  12.2 °C 30.06in /  1017.8hPa WSW 6.0mph /  9.7km/h 14.0mph /  22.5km/h 47% 0.00in /  0mm
13:30 75.3 °F /  24.1 °C 53.1 °F /  11.7 °C 30.06in /  1017.8hPa SW 5.0mph /  8km/h 13.0mph /  20.9km/h 46% 0.00in /  0mm
13:35 75.7 °F /  24.3 °C 55.2 °F /  12.9 °C 30.06in /  1017.8hPa SW 5.0mph /  8km/h 10.0mph /  16.1km/h 49% 0.00in /  0mm
13:40 76.4 °F /  24.7 °C 57.5 °F /  14.2 °C 30.06in /  1017.8hPa West 7.0mph /  11.3km/h 10.0mph /  16.1km/h 52% 0.00in /  0mm
13:44 76.0 °F /  24.4 °C 53.7 °F /  12.1 °C 30.06in /  1017.8hPa WSW 6.0mph /  9.7km/h 15.0mph /  24.1km/h 46% 0.00in /  0mm
13:49 76.8 °F /  24.9 °C 55.6 °F /  13.1 °C 30.06in /  1017.8hPa WSW 6.0mph /  9.7km/h 15.0mph /  24.1km/h 48% 0.00in /  0mm
13:54 76.1 °F /  24.5 °C 55.5 °F /  13.1 °C 30.06in /  1017.8hPa WSW 5.0mph /  8km/h 13.0mph /  20.9km/h 49% 0.00in /  0mm
13:59 75.6 °F /  24.2 °C 55.1 °F /  12.8 °C 30.06in /  1017.8hPa West 7.0mph /  11.3km/h 14.0mph /  22.5km/h 49% 0.00in /  0mm
14:09 75.5 °F /  24.2 °C 53.3 °F /  11.8 °C 30.06in /  1017.8hPa WNW 5.0mph /  8km/h 13.0mph /  20.9km/h 46% 0.00in /  0mm
14:14 75.5 °F /  24.2 °C 53.9 °F /  12.2 °C 30.05in /  1017.5hPa WSW 5.0mph /  8km/h 13.0mph /  20.9km/h 47% 0.00in /  0mm
14:19 75.0 °F /  23.9 °C 52.2 °F /  11.2 °C 30.05in /  1017.5hPa WSW 6.0mph /  9.7km/h 13.0mph /  20.9km/h 45% 0.00in /  0mm
14:24 74.9 °F /  23.8 °C 53.9 °F /  12.2 °C 30.06in /  1017.8hPa West 5.0mph /  8km/h 8.0mph /  12.9km/h 48% 0.00in /  0mm
14:30 74.7 °F /  23.7 °C 53.7 °F /  12.1 °C 30.05in /  1017.5hPa WSW 4.0mph /  6.4km/h 10.0mph /  16.1km/h 48% 0.00in /  0mm
14:34 74.5 °F /  23.6 °C 53.5 °F /  11.9 °C 30.06in /  1017.8hPa WNW 12.0mph /  19.3km/h 12.0mph /  19.3km/h 48% 0.00in /  0mm
14:39 74.4 °F /  23.6 °C 55.1 °F /  12.8 °C 30.06in /  1017.8hPa SW 7.0mph /  11.3km/h 12.0mph /  19.3km/h 51% 0.00in /  0mm
14:44 74.1 °F /  23.4 °C 53.7 °F /  12.1 °C 30.05in /  1017.5hPa SW 6.0mph /  9.7km/h 13.0mph /  20.9km/h 49% 0.00in /  0mm
14:49 75.0 °F /  23.9 °C 53.4 °F /  11.9 °C 30.05in /  1017.5hPa SW 6.0mph /  9.7km/h 13.0mph /  20.9km/h 47% 0.00in /  0mm
14:54 74.7 °F /  23.7 °C 54.8 °F /  12.7 °C 30.05in /  1017.5hPa WSW 6.0mph /  9.7km/h 16.0mph /  25.7km/h 50% 0.00in /  0mm
14:59 75.1 °F /  23.9 °C 55.2 °F /  12.9 °C 30.05in /  1017.5hPa WSW 6.0mph /  9.7km/h 16.0mph /  25.7km/h 50% 0.00in /  0mm
15:05 75.0 °F /  23.9 °C 56.7 °F /  13.7 °C 30.05in /  1017.5hPa WSW 5.0mph /  8km/h 11.0mph /  17.7km/h 53% 0.00in /  0mm
15:10 76.6 °F /  24.8 °C 57.7 °F /  14.3 °C 30.05in /  1017.5hPa SW 8.0mph /  12.9km/h 10.0mph /  16.1km/h 52% 0.00in /  0mm
15:15 76.7 °F /  24.8 °C 57.7 °F /  14.3 °C 30.05in /  1017.5hPa SW 13.0mph /  20.9km/h 13.0mph /  20.9km/h 52% 0.00in /  0mm
15:19 76.7 °F /  24.8 °C 57.2 °F /  14 °C 30.04in /  1017.2hPa WSW 7.0mph /  11.3km/h 13.0mph /  20.9km/h 51% 0.00in /  0mm
15:24 76.5 °F /  24.7 °C 57.0 °F /  13.9 °C 30.05in /  1017.5hPa WSW 7.0mph /  11.3km/h 16.0mph /  25.7km/h 51% 0.00in /  0mm
15:29 76.6 °F /  24.8 °C 58.2 °F /  14.6 °C 30.05in /  1017.5hPa WSW 7.0mph /  11.3km/h 13.0mph /  20.9km/h 53% 0.00in /  0mm
15:34 76.8 °F /  24.9 °C 58.4 °F /  14.7 °C 30.04in /  1017.2hPa WSW 5.0mph /  8km/h 11.0mph /  17.7km/h 53% 0.00in /  0mm
15:39 76.0 °F /  24.4 °C 57.6 °F /  14.2 °C 30.04in /  1017.2hPa WSW 6.0mph /  9.7km/h 14.0mph /  22.5km/h 53% 0.00in /  0mm
15:45 74.7 °F /  23.7 °C 56.9 °F /  13.8 °C 30.04in /  1017.2hPa WNW 7.0mph /  11.3km/h 13.0mph /  20.9km/h 54% 0.00in /  0mm
15:49 75.9 °F /  24.4 °C 57.5 °F /  14.2 °C 30.04in /  1017.2hPa WSW 7.0mph /  11.3km/h 13.0mph /  20.9km/h 53% 0.00in /  0mm
15:54 76.1 °F /  24.5 °C 58.2 °F /  14.6 °C 30.04in /  1017.2hPa SW 6.0mph /  9.7km/h 12.0mph /  19.3km/h 54% 0.00in /  0mm
15:59 75.9 °F /  24.4 °C 57.5 °F /  14.2 °C 30.04in /  1017.2hPa SW 7.0mph /  11.3km/h 14.0mph /  22.5km/h 53% 0.00in /  0mm
16:05 75.8 °F /  24.3 °C 58.5 °F /  14.7 °C 30.04in /  1017.2hPa SW 7.0mph /  11.3km/h 17.0mph /  27.4km/h 55% 0.00in /  0mm
16:09 75.6 °F /  24.2 °C 58.8 °F /  14.9 °C 30.04in /  1017.2hPa SW 6.0mph /  9.7km/h 12.0mph /  19.3km/h 56% 0.00in /  0mm
16:15 75.6 °F /  24.2 °C 59.8 °F /  15.4 °C 30.03in /  1016.8hPa SW 11.0mph /  17.7km/h 11.0mph /  17.7km/h 58% 0.00in /  0mm
16:19 75.9 °F /  24.4 °C 59.1 °F /  15.1 °C 30.03in /  1016.8hPa SW 7.0mph /  11.3km/h 12.0mph /  19.3km/h 56% 0.00in /  0mm
16:24 75.9 °F /  24.4 °C 60.5 °F /  15.8 °C 30.03in /  1016.8hPa SW 7.0mph /  11.3km/h 12.0mph /  19.3km/h 59% 0.00in /  0mm
16:29 75.9 °F /  24.4 °C 60.5 °F /  15.8 °C 30.03in /  1016.8hPa SW 6.0mph /  9.7km/h 12.0mph /  19.3km/h 59% 0.00in /  0mm
16:34 74.9 °F /  23.8 °C 60.1 °F /  15.6 °C 30.03in /  1016.8hPa WSW 6.0mph /  9.7km/h 12.0mph /  19.3km/h 60% 0.00in /  0mm
16:39 75.2 °F /  24 °C 60.8 °F /  16 °C 30.03in /  1016.8hPa WSW 5.0mph /  8km/h 12.0mph /  19.3km/h 61% 0.00in /  0mm
16:44 74.9 °F /  23.8 °C 60.1 °F /  15.6 °C 30.03in /  1016.8hPa SW 5.0mph /  8km/h 11.0mph /  17.7km/h 60% 0.00in /  0mm
16:49 74.5 °F /  23.6 °C 59.7 °F /  15.4 °C 30.03in /  1016.8hPa WNW 5.0mph /  8km/h 12.0mph /  19.3km/h 60% 0.00in /  0mm
16:54 74.1 °F /  23.4 °C 61.1 °F /  16.2 °C 30.03in /  1016.8hPa WSW 6.0mph /  9.7km/h 12.0mph /  19.3km/h 64% 0.00in /  0mm
16:59 74.3 °F /  23.5 °C 60.4 °F /  15.8 °C 30.03in /  1016.8hPa SW 8.0mph /  12.9km/h 11.0mph /  17.7km/h 62% 0.00in /  0mm
17:04 75.4 °F /  24.1 °C 61.0 °F /  16.1 °C 30.03in /  1016.8hPa SSW 4.0mph /  6.4km/h 9.0mph /  14.5km/h 61% 0.00in /  0mm
17:09 74.8 °F /  23.8 °C 59.0 °F /  15 °C 30.02in /  1016.5hPa WSW 6.0mph /  9.7km/h 14.0mph /  22.5km/h 58% 0.00in /  0mm
17:14 74.2 °F /  23.4 °C 59.4 °F /  15.2 °C 30.03in /  1016.8hPa WNW 8.0mph /  12.9km/h 13.0mph /  20.9km/h 60% 0.00in /  0mm
17:20 73.7 °F /  23.2 °C 59.4 °F /  15.2 °C 30.03in /  1016.8hPa West 6.0mph /  9.7km/h 16.0mph /  25.7km/h 61% 0.00in /  0mm
17:24 73.9 °F /  23.3 °C 59.6 °F /  15.3 °C 30.03in /  1016.8hPa WSW 7.0mph /  11.3km/h 16.0mph /  25.7km/h 61% 0.00in /  0mm
17:29 74.6 °F /  23.7 °C 60.3 °F /  15.7 °C 30.03in /  1016.8hPa SW 5.0mph /  8km/h 11.0mph /  17.7km/h 61% 0.00in /  0mm
17:34 74.9 °F /  23.8 °C 59.1 °F /  15.1 °C 30.03in /  1016.8hPa SW 6.0mph /  9.7km/h 11.0mph /  17.7km/h 58% 0.00in /  0mm
17:39 75.1 °F /  23.9 °C 60.3 °F /  15.7 °C 30.03in /  1016.8hPa WSW 6.0mph /  9.7km/h 15.0mph /  24.1km/h 60% 0.00in /  0mm
17:44 74.1 °F /  23.4 °C 59.8 °F /  15.4 °C 30.03in /  1016.8hPa SSW 4.0mph /  6.4km/h 17.0mph /  27.4km/h 61% 0.00in /  0mm
17:49 74.1 °F /  23.4 °C 60.2 °F /  15.7 °C 30.03in /  1016.8hPa WSW 4.0mph /  6.4km/h 13.0mph /  20.9km/h 62% 0.00in /  0mm
17:54 74.2 °F /  23.4 °C 60.8 °F /  16 °C 30.03in /  1016.8hPa WSW 6.0mph /  9.7km/h 13.0mph /  20.9km/h 63% 0.00in /  0mm
17:59 73.9 °F /  23.3 °C 61.4 °F /  16.3 °C 30.03in /  1016.8hPa WSW 7.0mph /  11.3km/h 10.0mph /  16.1km/h 65% 0.00in /  0mm
18:04 73.4 °F /  23 °C 60.9 °F /  16.1 °C 30.02in /  1016.5hPa West 4.0mph /  6.4km/h 12.0mph /  19.3km/h 65% 0.00in /  0mm
18:09 72.9 °F /  22.7 °C 60.4 °F /  15.8 °C 30.02in /  1016.5hPa WSW 6.0mph /  9.7km/h 13.0mph /  20.9km/h 65% 0.00in /  0mm
18:14 73.2 °F /  22.9 °C 61.2 °F /  16.2 °C 30.02in /  1016.5hPa WSW 3.0mph /  4.8km/h 10.0mph /  16.1km/h 66% 0.00in /  0mm
18:19 73.1 °F /  22.8 °C 61.5 °F /  16.4 °C 30.03in /  1016.8hPa West 6.0mph /  9.7km/h 14.0mph /  22.5km/h 67% 0.00in /  0mm
18:24 72.9 °F /  22.7 °C 61.3 °F /  16.3 °C 30.03in /  1016.8hPa West 11.0mph /  17.7km/h 11.0mph /  17.7km/h 67% 0.00in /  0mm
18:29 72.9 °F /  22.7 °C 61.7 °F /  16.5 °C 30.03in /  1016.8hPa WSW 5.0mph /  8km/h 11.0mph /  17.7km/h 68% 0.00in /  0mm
18:34 72.9 °F /  22.7 °C 61.7 °F /  16.5 °C 30.03in /  1016.8hPa WSW 5.0mph /  8km/h 14.0mph /  22.5km/h 68% 0.00in /  0mm
18:39 72.7 °F /  22.6 °C 60.7 °F /  15.9 °C 30.03in /  1016.8hPa WSW 6.0mph /  9.7km/h 14.0mph /  22.5km/h 66% 0.00in /  0mm
18:44 72.5 °F /  22.5 °C 60.5 °F /  15.8 °C 30.03in /  1016.8hPa WSW 7.0mph /  11.3km/h 14.0mph /  22.5km/h 66% 0.00in /  0mm
18:49 72.5 °F /  22.5 °C 60.5 °F /  15.8 °C 30.03in /  1016.8hPa WSW 8.0mph /  12.9km/h 13.0mph /  20.9km/h 66% 0.00in /  0mm
18:54 72.4 °F /  22.4 °C 60.4 °F /  15.8 °C 30.03in /  1016.8hPa SW 6.0mph /  9.7km/h 13.0mph /  20.9km/h 66% 0.00in /  0mm
18:59 72.2 °F /  22.3 °C 60.6 °F /  15.9 °C 30.03in /  1016.8hPa WSW 7.0mph /  11.3km/h 14.0mph /  22.5km/h 67% 0.00in /  0mm
19:04 72.0 °F /  22.2 °C 61.3 °F /  16.3 °C 30.03in /  1016.8hPa WSW 7.0mph /  11.3km/h 14.0mph /  22.5km/h 69% 0.00in /  0mm
19:09 71.9 °F /  22.2 °C 61.2 °F /  16.2 °C 30.03in /  1016.8hPa WSW 9.0mph /  14.5km/h 13.0mph /  20.9km/h 69% 0.00in /  0mm
19:14 71.7 °F /  22.1 °C 61.8 °F /  16.6 °C 30.03in /  1016.8hPa WSW 3.0mph /  4.8km/h 11.0mph /  17.7km/h 71% 0.00in /  0mm
19:19 71.6 °F /  22 °C 61.7 °F /  16.5 °C 30.03in /  1016.8hPa West 9.0mph /  14.5km/h 13.0mph /  20.9km/h 71% 0.00in /  0mm
19:24 71.5 °F /  21.9 °C 61.6 °F /  16.4 °C 30.03in /  1016.8hPa WSW 3.0mph /  4.8km/h 12.0mph /  19.3km/h 71% 0.00in /  0mm
19:29 71.5 °F /  21.9 °C 61.2 °F /  16.2 °C 30.03in /  1016.8hPa SSW 3.0mph /  4.8km/h 13.0mph /  20.9km/h 70% 0.00in /  0mm
19:34 71.5 °F /  21.9 °C 61.2 °F /  16.2 °C 30.03in /  1016.8hPa WSW 6.0mph /  9.7km/h 13.0mph /  20.9km/h 70% 0.00in /  0mm
19:39 71.4 °F /  21.9 °C 61.1 °F /  16.2 °C 30.03in /  1016.8hPa WSW 5.0mph /  8km/h 11.0mph /  17.7km/h 70% 0.00in /  0mm
19:44 71.5 °F /  21.9 °C 61.6 °F /  16.4 °C 30.03in /  1016.8hPa WSW 4.0mph /  6.4km/h 8.0mph /  12.9km/h 71% 0.00in /  0mm
19:49 71.4 °F /  21.9 °C 61.9 °F /  16.6 °C 30.03in /  1016.8hPa WSW 4.0mph /  6.4km/h 8.0mph /  12.9km/h 72% 0.00in /  0mm
19:54 71.3 °F /  21.8 °C 61.8 °F /  16.6 °C 30.03in /  1016.8hPa West 4.0mph /  6.4km/h 9.0mph /  14.5km/h 72% 0.00in /  0mm
20:04 71.2 °F /  21.8 °C 61.7 °F /  16.5 °C 30.03in /  1016.8hPa West 3.0mph /  4.8km/h 6.0mph /  9.7km/h 72% 0.00in /  0mm
20:09 71.2 °F /  21.8 °C 61.7 °F /  16.5 °C 30.03in /  1016.8hPa West 6.0mph /  9.7km/h 8.0mph /  12.9km/h 72% 0.00in /  0mm
20:14 71.0 °F /  21.7 °C 61.1 °F /  16.2 °C 30.04in /  1017.2hPa WSW 6.0mph /  9.7km/h 9.0mph /  14.5km/h 71% 0.00in /  0mm
20:19 70.9 °F /  21.6 °C 61.0 °F /  16.1 °C 30.03in /  1016.8hPa WSW 4.0mph /  6.4km/h 10.0mph /  16.1km/h 71% 0.00in /  0mm
20:24 70.7 °F /  21.5 °C 61.2 °F /  16.2 °C 30.03in /  1016.8hPa West 3.0mph /  4.8km/h 9.0mph /  14.5km/h 72% 0.00in /  0mm
20:29 70.6 °F /  21.4 °C 60.7 °F /  15.9 °C 30.03in /  1016.8hPa SW 4.0mph /  6.4km/h 7.0mph /  11.3km/h 71% 0.00in /  0mm
20:34 70.5 °F /  21.4 °C 60.6 °F /  15.9 °C 30.03in /  1016.8hPa WSW 2.0mph /  3.2km/h 6.0mph /  9.7km/h 71% 0.00in /  0mm
20:39 70.6 °F /  21.4 °C 60.7 °F /  15.9 °C 30.03in /  1016.8hPa WSW 3.0mph /  4.8km/h 6.0mph /  9.7km/h 71% 0.00in /  0mm
20:44 70.4 °F /  21.3 °C 60.5 °F /  15.8 °C 30.02in /  1016.5hPa WSW 3.0mph /  4.8km/h 9.0mph /  14.5km/h 71% 0.00in /  0mm
20:49 70.3 °F /  21.3 °C 60.4 °F /  15.8 °C 30.02in /  1016.5hPa WSW 3.0mph /  4.8km/h 9.0mph /  14.5km/h 71% 0.00in /  0mm
20:54 70.1 °F /  21.2 °C 60.3 °F /  15.7 °C 30.03in /  1016.8hPa West 3.0mph /  4.8km/h 8.0mph /  12.9km/h 71% 0.00in /  0mm
20:59 69.9 °F /  21.1 °C 60.1 °F /  15.6 °C 30.02in /  1016.5hPa West 3.0mph /  4.8km/h 8.0mph /  12.9km/h 71% 0.00in /  0mm
21:04 69.8 °F /  21 °C 60.0 °F /  15.6 °C 30.03in /  1016.8hPa West 3.0mph /  4.8km/h 7.0mph /  11.3km/h 71% 0.00in /  0mm
21:10 69.6 °F /  20.9 °C 59.8 °F /  15.4 °C 30.03in /  1016.8hPa West 3.0mph /  4.8km/h 7.0mph /  11.3km/h 71% 0.00in /  0mm
21:14 69.4 °F /  20.8 °C 60.0 °F /  15.6 °C 30.03in /  1016.8hPa West 2.0mph /  3.2km/h 5.0mph /  8km/h 72% 0.00in /  0mm
21:19 69.2 °F /  20.7 °C 59.8 °F /  15.4 °C 30.03in /  1016.8hPa West 2.0mph /  3.2km/h 5.0mph /  8km/h 72% 0.00in /  0mm
21:24 69.2 °F /  20.7 °C 59.8 °F /  15.4 °C 30.03in /  1016.8hPa WSW 1.0mph /  1.6km/h 4.0mph /  6.4km/h 72% 0.00in /  0mm
21:29 68.9 °F /  20.5 °C 59.9 °F /  15.5 °C 30.03in /  1016.8hPa WSW 1.0mph /  1.6km/h 3.0mph /  4.8km/h 73% 0.00in /  0mm
21:34 68.7 °F /  20.4 °C 60.1 °F /  15.6 °C 30.03in /  1016.8hPa Calm   4.0mph /  6.4km/h 74% 0.00in /  0mm
21:39 68.5 °F /  20.3 °C 59.9 °F /  15.5 °C 30.03in /  1016.8hPa Calm     74% 0.00in /  0mm
21:49 68.5 °F /  20.3 °C 60.3 °F /  15.7 °C 30.03in /  1016.8hPa WSW 1.0mph /  1.6km/h 4.0mph /  6.4km/h 75% 0.00in /  0mm
21:54 68.5 °F /  20.3 °C 60.3 °F /  15.7 °C 30.04in /  1017.2hPa WSW 1.0mph /  1.6km/h 4.0mph /  6.4km/h 75% 0.00in /  0mm
21:59 68.5 °F /  20.3 °C 60.3 °F /  15.7 °C 30.04in /  1017.2hPa WSW 1.0mph /  1.6km/h 4.0mph /  6.4km/h 75% 0.00in /  0mm
22:05 68.3 °F /  20.2 °C 60.1 °F /  15.6 °C 30.04in /  1017.2hPa Calm   2.0mph /  3.2km/h 75% 0.00in /  0mm
22:09 68.1 °F /  20.1 °C 59.9 °F /  15.5 °C 30.04in /  1017.2hPa Calm     75% 0.00in /  0mm
22:14 68.1 °F /  20.1 °C 59.9 °F /  15.5 °C 30.04in /  1017.2hPa Calm   7.0mph /  11.3km/h 75% 0.00in /  0mm
22:19 68.4 °F /  20.2 °C 60.2 °F /  15.7 °C 30.04in /  1017.2hPa WSW 3.0mph /  4.8km/h 4.0mph /  6.4km/h 75% 0.00in /  0mm
22:24 68.8 °F /  20.4 °C 60.2 °F /  15.7 °C 30.04in /  1017.2hPa West 5.0mph /  8km/h 5.0mph /  8km/h 74% 0.00in /  0mm
22:29 69.1 °F /  20.6 °C 60.1 °F /  15.6 °C 30.04in /  1017.2hPa South 3.0mph /  4.8km/h 7.0mph /  11.3km/h 73% 0.00in /  0mm
22:34 69.4 °F /  20.8 °C 60.4 °F /  15.8 °C 30.04in /  1017.2hPa Calm   6.0mph /  9.7km/h 73% 0.00in /  0mm
22:39 69.5 °F /  20.8 °C 60.5 °F /  15.8 °C 30.04in /  1017.2hPa SW 4.0mph /  6.4km/h 6.0mph /  9.7km/h 73% 0.00in /  0mm
22:44 69.5 °F /  20.8 °C 60.5 °F /  15.8 °C 30.04in /  1017.2hPa SW 1.0mph /  1.6km/h 6.0mph /  9.7km/h 73% 0.00in /  0mm
22:49 69.6 °F /  20.9 °C 60.6 °F /  15.9 °C 30.04in /  1017.2hPa SW 2.0mph /  3.2km/h 6.0mph /  9.7km/h 73% 0.00in /  0mm
22:54 69.5 °F /  20.8 °C 60.5 °F /  15.8 °C 30.04in /  1017.2hPa SW 2.0mph /  3.2km/h 5.0mph /  8km/h 73% 0.00in /  0mm
22:59 69.5 °F /  20.8 °C 60.5 °F /  15.8 °C 30.04in /  1017.2hPa SW 1.0mph /  1.6km/h 4.0mph /  6.4km/h 73% 0.00in /  0mm
23:04 69.3 °F /  20.7 °C 60.7 °F /  15.9 °C 30.04in /  1017.2hPa SW 1.0mph /  1.6km/h 5.0mph /  8km/h 74% 0.00in /  0mm
23:09 69.2 °F /  20.7 °C 60.6 °F /  15.9 °C 30.04in /  1017.2hPa WSW 1.0mph /  1.6km/h 5.0mph /  8km/h 74% 0.00in /  0mm
23:14 69.2 °F /  20.7 °C 60.9 °F /  16.1 °C 30.04in /  1017.2hPa Calm   5.0mph /  8km/h 75% 0.00in /  0mm
23:19 68.9 °F /  20.5 °C 60.6 °F /  15.9 °C 30.04in /  1017.2hPa SSW 2.0mph /  3.2km/h 4.0mph /  6.4km/h 75% 0.00in /  0mm
23:24 68.7 °F /  20.4 °C 60.8 °F /  16 °C 30.04in /  1017.2hPa SW 1.0mph /  1.6km/h 5.0mph /  8km/h 76% 0.00in /  0mm
23:29 68.6 °F /  20.3 °C 61.1 °F /  16.2 °C 30.04in /  1017.2hPa SW 1.0mph /  1.6km/h 4.0mph /  6.4km/h 77% 0.00in /  0mm
23:34 68.7 °F /  20.4 °C 61.2 °F /  16.2 °C 30.04in /  1017.2hPa SSW 2.0mph /  3.2km/h 5.0mph /  8km/h 77% 0.00in /  0mm
23:39 68.6 °F /  20.3 °C 61.1 °F /  16.2 °C 30.04in /  1017.2hPa Calm   3.0mph /  4.8km/h 77% 0.00in /  0mm
23:44 68.5 °F /  20.3 °C 61.4 °F /  16.3 °C 30.04in /  1017.2hPa SSW 3.0mph /  4.8km/h 4.0mph /  6.4km/h 78% 0.00in /  0mm
23:49 68.2 °F /  20.1 °C 61.1 °F /  16.2 °C 30.04in /  1017.2hPa Calm   4.0mph /  6.4km/h 78% 0.00in /  0mm
23:54 67.9 °F /  19.9 °C 60.8 °F /  16 °C 30.04in /  1017.2hPa SSW 1.0mph /  1.6km/h 4.0mph /  6.4km/h 78% 0.00in /  0mm
23:59 67.6 °F /  19.8 °C 60.9 °F /  16.1 °C 30.04in /  1017.2hPa South 1.0mph /  1.6km/h 3.0mph /  4.8km/h 79% 0.00in /  0mm
Buffalo, New York, USA
Compliments of Weather Underground - 2.5 mb